sensor_id;sensor_type;location;lat;lon;timestamp;P1;durP1;ratioP1;P2;durP2;ratioP2
22191;SDS011;11261;52.456;10.850;2023-02-28T00:01:29;4.47;;;2.47;;
22191;SDS011;11261;52.456;10.850;2023-02-28T00:03:59;3.33;;;2.27;;
22191;SDS011;11261;52.456;10.850;2023-02-28T00:06:27;7.73;;;2.73;;
22191;SDS011;11261;52.456;10.850;2023-02-28T00:08:56;8.87;;;2.90;;
22191;SDS011;11261;52.456;10.850;2023-02-28T00:11:24;3.40;;;2.10;;
22191;SDS011;11261;52.456;10.850;2023-02-28T00:13:53;3.83;;;2.23;;
22191;SDS011;11261;52.456;10.850;2023-02-28T00:16:21;4.60;;;2.33;;
22191;SDS011;11261;52.456;10.850;2023-02-28T00:18:51;3.93;;;2.60;;
22191;SDS011;11261;52.456;10.850;2023-02-28T00:21:19;3.33;;;2.23;;
22191;SDS011;11261;52.456;10.850;2023-02-28T00:23:48;6.73;;;2.47;;
22191;SDS011;11261;52.456;10.850;2023-02-28T00:26:16;4.67;;;2.27;;
22191;SDS011;11261;52.456;10.850;2023-02-28T00:28:47;4.43;;;2.13;;
22191;SDS011;11261;52.456;10.850;2023-02-28T00:31:15;2.87;;;1.93;;
22191;SDS011;11261;52.456;10.850;2023-02-28T00:33:44;4.25;;;2.42;;
22191;SDS011;11261;52.456;10.850;2023-02-28T00:36:14;3.70;;;2.40;;
22191;SDS011;11261;52.456;10.850;2023-02-28T00:38:42;5.67;;;2.77;;
22191;SDS011;11261;52.456;10.850;2023-02-28T00:41:11;4.50;;;2.40;;
22191;SDS011;11261;52.456;10.850;2023-02-28T00:43:39;4.27;;;2.40;;
22191;SDS011;11261;52.456;10.850;2023-02-28T00:46:08;4.53;;;2.67;;
22191;SDS011;11261;52.456;10.850;2023-02-28T00:48:36;3.90;;;2.43;;
22191;SDS011;11261;52.456;10.850;2023-02-28T00:51:05;6.00;;;2.40;;
22191;SDS011;11261;52.456;10.850;2023-02-28T00:53:34;5.37;;;2.40;;
22191;SDS011;11261;52.456;10.850;2023-02-28T00:56:03;4.17;;;2.20;;
22191;SDS011;11261;52.456;10.850;2023-02-28T00:58:32;4.07;;;2.33;;
22191;SDS011;11261;52.456;10.850;2023-02-28T01:01:00;4.13;;;2.37;;
22191;SDS011;11261;52.456;10.850;2023-02-28T01:03:29;4.90;;;2.40;;
22191;SDS011;11261;52.456;10.850;2023-02-28T01:05:57;7.40;;;2.50;;
22191;SDS011;11261;52.456;10.850;2023-02-28T01:08:25;3.50;;;2.33;;
22191;SDS011;11261;52.456;10.850;2023-02-28T01:10:55;4.67;;;2.30;;
22191;SDS011;11261;52.456;10.850;2023-02-28T01:13:24;6.23;;;2.83;;
22191;SDS011;11261;52.456;10.850;2023-02-28T01:15:53;6.97;;;3.40;;
22191;SDS011;11261;52.456;10.850;2023-02-28T01:18:23;4.97;;;2.70;;
22191;SDS011;11261;52.456;10.850;2023-02-28T01:20:52;5.60;;;3.17;;
22191;SDS011;11261;52.456;10.850;2023-02-28T01:23:21;6.90;;;3.60;;
22191;SDS011;11261;52.456;10.850;2023-02-28T01:25:50;6.67;;;3.90;;
22191;SDS011;11261;52.456;10.850;2023-02-28T01:28:20;7.90;;;3.73;;
22191;SDS011;11261;52.456;10.850;2023-02-28T01:30:48;4.83;;;2.90;;
22191;SDS011;11261;52.456;10.850;2023-02-28T01:33:18;7.37;;;3.20;;
22191;SDS011;11261;52.456;10.850;2023-02-28T01:35:46;5.17;;;3.37;;
22191;SDS011;11261;52.456;10.850;2023-02-28T01:38:14;5.90;;;2.73;;
22191;SDS011;11261;52.456;10.850;2023-02-28T01:40:48;5.73;;;2.93;;
22191;SDS011;11261;52.456;10.850;2023-02-28T01:43:19;5.17;;;2.90;;
22191;SDS011;11261;52.456;10.850;2023-02-28T01:45:50;4.67;;;2.50;;
22191;SDS011;11261;52.456;10.850;2023-02-28T01:48:21;5.27;;;2.30;;
22191;SDS011;11261;52.456;10.850;2023-02-28T01:50:53;4.33;;;2.53;;
22191;SDS011;11261;52.456;10.850;2023-02-28T01:53:26;5.97;;;2.20;;
22191;SDS011;11261;52.456;10.850;2023-02-28T01:56:00;4.23;;;2.63;;
22191;SDS011;11261;52.456;10.850;2023-02-28T01:58:32;3.77;;;2.23;;
22191;SDS011;11261;52.456;10.850;2023-02-28T02:01:01;4.47;;;2.50;;
22191;SDS011;11261;52.456;10.850;2023-02-28T02:03:30;3.40;;;2.33;;
22191;SDS011;11261;52.456;10.850;2023-02-28T02:06:00;4.17;;;2.13;;
22191;SDS011;11261;52.456;10.850;2023-02-28T02:08:29;5.00;;;2.73;;
22191;SDS011;11261;52.456;10.850;2023-02-28T02:10:58;2.90;;;1.93;;
22191;SDS011;11261;52.456;10.850;2023-02-28T02:13:41;4.50;;;2.73;;
22191;SDS011;11261;52.456;10.850;2023-02-28T02:16:34;6.07;;;3.10;;
22191;SDS011;11261;52.456;10.850;2023-02-28T02:19:15;7.80;;;3.13;;
22191;SDS011;11261;52.456;10.850;2023-02-28T02:22:16;4.87;;;2.70;;
22191;SDS011;11261;52.456;10.850;2023-02-28T02:24:58;5.00;;;2.73;;
22191;SDS011;11261;52.456;10.850;2023-02-28T02:31:01;6.77;;;2.77;;
22191;SDS011;11261;52.456;10.850;2023-02-28T02:34:06;6.77;;;2.73;;
22191;SDS011;11261;52.456;10.850;2023-02-28T02:37:03;4.57;;;2.40;;
22191;SDS011;11261;52.456;10.850;2023-02-28T02:39:41;3.93;;;2.63;;
22191;SDS011;11261;52.456;10.850;2023-02-28T02:42:18;8.03;;;2.30;;
22191;SDS011;11261;52.456;10.850;2023-02-28T02:44:52;3.47;;;2.50;;
22191;SDS011;11261;52.456;10.850;2023-02-28T02:47:27;5.20;;;2.57;;
22191;SDS011;11261;52.456;10.850;2023-02-28T02:50:01;6.67;;;2.67;;
22191;SDS011;11261;52.456;10.850;2023-02-28T02:52:34;7.97;;;3.10;;
22191;SDS011;11261;52.456;10.850;2023-02-28T02:55:07;4.37;;;2.70;;
22191;SDS011;11261;52.456;10.850;2023-02-28T02:57:40;7.40;;;3.00;;
22191;SDS011;11261;52.456;10.850;2023-02-28T03:00:12;5.67;;;2.50;;
22191;SDS011;11261;52.456;10.850;2023-02-28T03:02:43;4.90;;;2.60;;
22191;SDS011;11261;52.456;10.850;2023-02-28T03:05:16;4.57;;;2.83;;
22191;SDS011;11261;52.456;10.850;2023-02-28T03:07:49;3.30;;;2.40;;
22191;SDS011;11261;52.456;10.850;2023-02-28T03:10:31;3.93;;;2.20;;
22191;SDS011;11261;52.456;10.850;2023-02-28T03:13:09;6.73;;;2.47;;
22191;SDS011;11261;52.456;10.850;2023-02-28T03:15:50;6.37;;;2.70;;
22191;SDS011;11261;52.456;10.850;2023-02-28T03:18:27;5.03;;;2.23;;
22191;SDS011;11261;52.456;10.850;2023-02-28T03:21:06;5.70;;;2.67;;
22191;SDS011;11261;52.456;10.850;2023-02-28T03:23:45;3.30;;;2.57;;
22191;SDS011;11261;52.456;10.850;2023-02-28T03:26:20;4.87;;;2.13;;
22191;SDS011;11261;52.456;10.850;2023-02-28T03:28:52;4.10;;;2.30;;
22191;SDS011;11261;52.456;10.850;2023-02-28T03:31:30;9.00;;;2.50;;
22191;SDS011;11261;52.456;10.850;2023-02-28T03:34:07;4.83;;;2.97;;
22191;SDS011;11261;52.456;10.850;2023-02-28T03:36:42;6.70;;;2.90;;
22191;SDS011;11261;52.456;10.850;2023-02-28T03:39:16;7.30;;;2.60;;
22191;SDS011;11261;52.456;10.850;2023-02-28T03:41:48;3.33;;;2.33;;
22191;SDS011;11261;52.456;10.850;2023-02-28T03:44:21;2.07;;;1.57;;
22191;SDS011;11261;52.456;10.850;2023-02-28T03:46:52;5.50;;;2.20;;
22191;SDS011;11261;52.456;10.850;2023-02-28T03:49:26;5.40;;;2.57;;
22191;SDS011;11261;52.456;10.850;2023-02-28T03:51:59;4.53;;;2.30;;
22191;SDS011;11261;52.456;10.850;2023-02-28T03:54:31;2.83;;;2.00;;
22191;SDS011;11261;52.456;10.850;2023-02-28T03:57:03;4.37;;;2.13;;
22191;SDS011;11261;52.456;10.850;2023-02-28T03:59:36;3.30;;;1.70;;
22191;SDS011;11261;52.456;10.850;2023-02-28T04:02:08;4.43;;;2.30;;
22191;SDS011;11261;52.456;10.850;2023-02-28T04:04:37;2.97;;;2.10;;
22191;SDS011;11261;52.456;10.850;2023-02-28T04:07:12;4.03;;;2.10;;
22191;SDS011;11261;52.456;10.850;2023-02-28T04:09:41;4.20;;;2.30;;
22191;SDS011;11261;52.456;10.850;2023-02-28T04:12:11;3.73;;;2.03;;
22191;SDS011;11261;52.456;10.850;2023-02-28T04:14:39;5.40;;;2.57;;
22191;SDS011;11261;52.456;10.850;2023-02-28T04:17:07;3.87;;;2.60;;
22191;SDS011;11261;52.456;10.850;2023-02-28T04:19:35;4.80;;;3.27;;
22191;SDS011;11261;52.456;10.850;2023-02-28T04:22:04;6.03;;;2.60;;
22191;SDS011;11261;52.456;10.850;2023-02-28T04:24:34;2.63;;;1.97;;
22191;SDS011;11261;52.456;10.850;2023-02-28T04:27:02;5.53;;;2.60;;
22191;SDS011;11261;52.456;10.850;2023-02-28T04:29:31;4.87;;;2.23;;
22191;SDS011;11261;52.456;10.850;2023-02-28T04:32:00;4.37;;;2.20;;
22191;SDS011;11261;52.456;10.850;2023-02-28T04:34:30;3.27;;;2.20;;
22191;SDS011;11261;52.456;10.850;2023-02-28T04:36:59;2.90;;;2.00;;
22191;SDS011;11261;52.456;10.850;2023-02-28T04:39:40;2.20;;;1.73;;
22191;SDS011;11261;52.456;10.850;2023-02-28T04:42:09;6.10;;;2.37;;
22191;SDS011;11261;52.456;10.850;2023-02-28T04:44:37;4.47;;;2.23;;
22191;SDS011;11261;52.456;10.850;2023-02-28T04:47:05;3.27;;;1.83;;
22191;SDS011;11261;52.456;10.850;2023-02-28T04:49:34;3.00;;;1.80;;
22191;SDS011;11261;52.456;10.850;2023-02-28T04:52:02;2.57;;;1.90;;
22191;SDS011;11261;52.456;10.850;2023-02-28T04:54:31;4.50;;;1.70;;
22191;SDS011;11261;52.456;10.850;2023-02-28T04:57:00;2.80;;;1.83;;
22191;SDS011;11261;52.456;10.850;2023-02-28T04:59:29;2.80;;;1.90;;
22191;SDS011;11261;52.456;10.850;2023-02-28T05:01:57;5.83;;;1.93;;
22191;SDS011;11261;52.456;10.850;2023-02-28T05:04:26;2.23;;;2.00;;
22191;SDS011;11261;52.456;10.850;2023-02-28T05:06:54;5.33;;;2.27;;
22191;SDS011;11261;52.456;10.850;2023-02-28T05:09:22;5.00;;;1.93;;
22191;SDS011;11261;52.456;10.850;2023-02-28T05:11:51;4.03;;;2.47;;
22191;SDS011;11261;52.456;10.850;2023-02-28T05:14:21;5.87;;;2.33;;
22191;SDS011;11261;52.456;10.850;2023-02-28T05:16:49;6.33;;;2.17;;
22191;SDS011;11261;52.456;10.850;2023-02-28T05:19:17;5.97;;;2.67;;
22191;SDS011;11261;52.456;10.850;2023-02-28T05:21:50;3.10;;;2.07;;
22191;SDS011;11261;52.456;10.850;2023-02-28T05:24:20;4.83;;;2.30;;
22191;SDS011;11261;52.456;10.850;2023-02-28T05:26:50;3.77;;;1.97;;
22191;SDS011;11261;52.456;10.850;2023-02-28T05:29:21;2.90;;;2.23;;
22191;SDS011;11261;52.456;10.850;2023-02-28T05:31:50;5.50;;;2.33;;
22191;SDS011;11261;52.456;10.850;2023-02-28T05:34:18;5.07;;;2.13;;
22191;SDS011;11261;52.456;10.850;2023-02-28T05:36:46;6.87;;;2.20;;
22191;SDS011;11261;52.456;10.850;2023-02-28T05:39:15;3.23;;;1.97;;
22191;SDS011;11261;52.456;10.850;2023-02-28T05:41:43;4.63;;;2.90;;
22191;SDS011;11261;52.456;10.850;2023-02-28T05:44:11;4.47;;;2.53;;
22191;SDS011;11261;52.456;10.850;2023-02-28T05:46:41;4.20;;;2.27;;
22191;SDS011;11261;52.456;10.850;2023-02-28T05:49:09;6.07;;;2.40;;
22191;SDS011;11261;52.456;10.850;2023-02-28T05:51:38;6.07;;;2.43;;
22191;SDS011;11261;52.456;10.850;2023-02-28T05:54:06;4.27;;;2.27;;
22191;SDS011;11261;52.456;10.850;2023-02-28T05:56:36;5.13;;;2.33;;
22191;SDS011;11261;52.456;10.850;2023-02-28T05:59:06;5.97;;;2.50;;
22191;SDS011;11261;52.456;10.850;2023-02-28T06:01:36;4.73;;;2.57;;
22191;SDS011;11261;52.456;10.850;2023-02-28T06:04:07;7.60;;;2.27;;
22191;SDS011;11261;52.456;10.850;2023-02-28T06:06:54;4.37;;;2.90;;
22191;SDS011;11261;52.456;10.850;2023-02-28T06:09:24;3.33;;;2.03;;
22191;SDS011;11261;52.456;10.850;2023-02-28T06:11:52;5.47;;;2.47;;
22191;SDS011;11261;52.456;10.850;2023-02-28T06:14:20;5.50;;;2.77;;
22191;SDS011;11261;52.456;10.850;2023-02-28T06:16:48;4.53;;;2.47;;
22191;SDS011;11261;52.456;10.850;2023-02-28T06:19:19;7.50;;;3.10;;
22191;SDS011;11261;52.456;10.850;2023-02-28T06:21:48;5.13;;;2.37;;
22191;SDS011;11261;52.456;10.850;2023-02-28T06:24:18;4.00;;;2.20;;
22191;SDS011;11261;52.456;10.850;2023-02-28T06:26:47;3.07;;;2.37;;
22191;SDS011;11261;52.456;10.850;2023-02-28T06:29:16;5.33;;;2.30;;
22191;SDS011;11261;52.456;10.850;2023-02-28T06:31:45;5.00;;;2.70;;
22191;SDS011;11261;52.456;10.850;2023-02-28T06:34:14;3.03;;;2.10;;
22191;SDS011;11261;52.456;10.850;2023-02-28T06:36:43;5.27;;;1.97;;
22191;SDS011;11261;52.456;10.850;2023-02-28T06:39:12;3.43;;;2.30;;
22191;SDS011;11261;52.456;10.850;2023-02-28T06:41:40;4.10;;;2.60;;
22191;SDS011;11261;52.456;10.850;2023-02-28T06:44:21;3.97;;;2.27;;
22191;SDS011;11261;52.456;10.850;2023-02-28T06:46:50;4.53;;;2.53;;
22191;SDS011;11261;52.456;10.850;2023-02-28T06:49:19;7.37;;;3.07;;
22191;SDS011;11261;52.456;10.850;2023-02-28T06:51:48;5.40;;;3.00;;
22191;SDS011;11261;52.456;10.850;2023-02-28T06:54:17;4.63;;;3.20;;
22191;SDS011;11261;52.456;10.850;2023-02-28T06:56:45;5.83;;;2.53;;
22191;SDS011;11261;52.456;10.850;2023-02-28T06:59:14;5.77;;;2.70;;
22191;SDS011;11261;52.456;10.850;2023-02-28T07:01:42;4.73;;;2.60;;
22191;SDS011;11261;52.456;10.850;2023-02-28T07:04:10;4.83;;;2.57;;
22191;SDS011;11261;52.456;10.850;2023-02-28T07:06:39;6.90;;;3.40;;
22191;SDS011;11261;52.456;10.850;2023-02-28T07:09:09;5.67;;;2.83;;
22191;SDS011;11261;52.456;10.850;2023-02-28T07:11:38;6.10;;;3.07;;
22191;SDS011;11261;52.456;10.850;2023-02-28T07:14:06;5.03;;;2.80;;
22191;SDS011;11261;52.456;10.850;2023-02-28T07:16:35;5.97;;;3.23;;
22191;SDS011;11261;52.456;10.850;2023-02-28T07:19:03;6.63;;;3.67;;
22191;SDS011;11261;52.456;10.850;2023-02-28T07:21:32;6.30;;;2.90;;
22191;SDS011;11261;52.456;10.850;2023-02-28T07:24:00;8.87;;;2.93;;
22191;SDS011;11261;52.456;10.850;2023-02-28T07:26:30;6.47;;;2.97;;
22191;SDS011;11261;52.456;10.850;2023-02-28T07:29:00;3.63;;;2.30;;
22191;SDS011;11261;52.456;10.850;2023-02-28T07:31:29;2.83;;;1.90;;
22191;SDS011;11261;52.456;10.850;2023-02-28T07:33:58;3.73;;;2.30;;
22191;SDS011;11261;52.456;10.850;2023-02-28T07:36:26;5.50;;;2.67;;
22191;SDS011;11261;52.456;10.850;2023-02-28T07:38:54;4.43;;;2.30;;
22191;SDS011;11261;52.456;10.850;2023-02-28T07:41:23;3.67;;;1.95;;
22191;SDS011;11261;52.456;10.850;2023-02-28T07:43:55;3.40;;;2.03;;
22191;SDS011;11261;52.456;10.850;2023-02-28T07:46:26;3.55;;;2.50;;
22191;SDS011;11261;52.456;10.850;2023-02-28T07:48:56;3.92;;;1.75;;
22191;SDS011;11261;52.456;10.850;2023-02-28T07:51:26;3.35;;;1.90;;
22191;SDS011;11261;52.456;10.850;2023-02-28T07:53:55;4.32;;;2.13;;
22191;SDS011;11261;52.456;10.850;2023-02-28T07:56:23;3.05;;;1.80;;
22191;SDS011;11261;52.456;10.850;2023-02-28T07:58:51;3.08;;;1.80;;
22191;SDS011;11261;52.456;10.850;2023-02-28T08:01:21;3.38;;;2.15;;
22191;SDS011;11261;52.456;10.850;2023-02-28T08:03:50;3.53;;;1.65;;
22191;SDS011;11261;52.456;10.850;2023-02-28T08:06:19;3.30;;;1.95;;
22191;SDS011;11261;52.456;10.850;2023-02-28T08:08:48;2.65;;;1.48;;
22191;SDS011;11261;52.456;10.850;2023-02-28T08:11:17;3.63;;;1.80;;
22191;SDS011;11261;52.456;10.850;2023-02-28T08:13:46;3.30;;;1.65;;
22191;SDS011;11261;52.456;10.850;2023-02-28T08:16:14;4.32;;;1.90;;
22191;SDS011;11261;52.456;10.850;2023-02-28T08:18:49;2.83;;;1.88;;
22191;SDS011;11261;52.456;10.850;2023-02-28T08:21:18;3.40;;;1.30;;
22191;SDS011;11261;52.456;10.850;2023-02-28T08:23:46;3.38;;;1.80;;
22191;SDS011;11261;52.456;10.850;2023-02-28T08:26:15;4.30;;;1.70;;
22191;SDS011;11261;52.456;10.850;2023-02-28T08:28:43;2.42;;;1.60;;
22191;SDS011;11261;52.456;10.850;2023-02-28T08:31:12;1.75;;;1.60;;
22191;SDS011;11261;52.456;10.850;2023-02-28T08:33:42;2.35;;;1.35;;
22191;SDS011;11261;52.456;10.850;2023-02-28T08:36:13;2.45;;;2.10;;
22191;SDS011;11261;52.456;10.850;2023-02-28T08:38:41;3.05;;;2.10;;
22191;SDS011;11261;52.456;10.850;2023-02-28T08:41:11;4.47;;;2.00;;
22191;SDS011;11261;52.456;10.850;2023-02-28T08:43:40;2.03;;;1.63;;
22191;SDS011;11261;52.456;10.850;2023-02-28T08:46:10;2.88;;;1.52;;
22191;SDS011;11261;52.456;10.850;2023-02-28T08:48:40;6.20;;;2.42;;
22191;SDS011;11261;52.456;10.850;2023-02-28T08:51:09;2.60;;;2.00;;
22191;SDS011;11261;52.456;10.850;2023-02-28T08:53:40;4.38;;;2.25;;
22191;SDS011;11261;52.456;10.850;2023-02-28T08:56:09;5.93;;;2.45;;
22191;SDS011;11261;52.456;10.850;2023-02-28T08:58:39;3.72;;;2.20;;
22191;SDS011;11261;52.456;10.850;2023-02-28T09:01:09;3.55;;;2.25;;
22191;SDS011;11261;52.456;10.850;2023-02-28T09:03:40;4.03;;;2.40;;
22191;SDS011;11261;52.456;10.850;2023-02-28T09:06:10;5.55;;;2.47;;
22191;SDS011;11261;52.456;10.850;2023-02-28T09:08:38;3.47;;;2.30;;
22191;SDS011;11261;52.456;10.850;2023-02-28T09:11:08;3.72;;;2.47;;
22191;SDS011;11261;52.456;10.850;2023-02-28T09:13:37;3.92;;;2.55;;
22191;SDS011;11261;52.456;10.850;2023-02-28T09:16:07;5.25;;;2.70;;
22191;SDS011;11261;52.456;10.850;2023-02-28T09:18:37;2.97;;;2.10;;
22191;SDS011;11261;52.456;10.850;2023-02-28T09:21:06;5.95;;;2.72;;
22191;SDS011;11261;52.456;10.850;2023-02-28T09:23:36;5.88;;;2.40;;
22191;SDS011;11261;52.456;10.850;2023-02-28T09:26:07;8.15;;;3.05;;
22191;SDS011;11261;52.456;10.850;2023-02-28T09:28:36;7.93;;;3.30;;
22191;SDS011;11261;52.456;10.850;2023-02-28T09:31:04;6.45;;;3.03;;
22191;SDS011;11261;52.456;10.850;2023-02-28T09:33:32;6.20;;;3.20;;
22191;SDS011;11261;52.456;10.850;2023-02-28T09:36:01;4.57;;;2.97;;
22191;SDS011;11261;52.456;10.850;2023-02-28T09:38:31;5.93;;;3.10;;
22191;SDS011;11261;52.456;10.850;2023-02-28T09:41:01;4.72;;;3.03;;
22191;SDS011;11261;52.456;10.850;2023-02-28T09:43:34;6.18;;;3.60;;
22191;SDS011;11261;52.456;10.850;2023-02-28T09:46:07;5.53;;;3.33;;
22191;SDS011;11261;52.456;10.850;2023-02-28T09:48:42;6.20;;;3.65;;
22191;SDS011;11261;52.456;10.850;2023-02-28T09:51:15;6.18;;;4.00;;
22191;SDS011;11261;52.456;10.850;2023-02-28T09:53:55;8.77;;;3.10;;
22191;SDS011;11261;52.456;10.850;2023-02-28T09:56:28;6.15;;;3.13;;
22191;SDS011;11261;52.456;10.850;2023-02-28T09:59:02;8.88;;;3.15;;
22191;SDS011;11261;52.456;10.850;2023-02-28T10:01:39;6.93;;;3.33;;
22191;SDS011;11261;52.456;10.850;2023-02-28T10:04:22;6.18;;;3.28;;
22191;SDS011;11261;52.456;10.850;2023-02-28T10:07:10;8.10;;;3.13;;
22191;SDS011;11261;52.456;10.850;2023-02-28T10:09:46;7.45;;;3.05;;
22191;SDS011;11261;52.456;10.850;2023-02-28T10:12:19;4.43;;;2.50;;
22191;SDS011;11261;52.456;10.850;2023-02-28T10:14:50;5.68;;;2.50;;
22191;SDS011;11261;52.456;10.850;2023-02-28T10:17:21;5.45;;;2.80;;
22191;SDS011;11261;52.456;10.850;2023-02-28T10:19:56;5.50;;;2.45;;
22191;SDS011;11261;52.456;10.850;2023-02-28T10:22:35;4.95;;;3.28;;
22191;SDS011;11261;52.456;10.850;2023-02-28T10:25:18;5.50;;;2.28;;
22191;SDS011;11261;52.456;10.850;2023-02-28T10:27:48;7.22;;;3.15;;
22191;SDS011;11261;52.456;10.850;2023-02-28T10:30:19;5.95;;;2.90;;
22191;SDS011;11261;52.456;10.850;2023-02-28T10:32:49;4.40;;;2.70;;
22191;SDS011;11261;52.456;10.850;2023-02-28T10:35:20;4.75;;;2.03;;
22191;SDS011;11261;52.456;10.850;2023-02-28T10:37:51;4.85;;;2.35;;
22191;SDS011;11261;52.456;10.850;2023-02-28T10:40:29;3.50;;;1.80;;
22191;SDS011;11261;52.456;10.850;2023-02-28T10:43:02;1.90;;;1.70;;
22191;SDS011;11261;52.456;10.850;2023-02-28T10:45:34;3.90;;;2.03;;
22191;SDS011;11261;52.456;10.850;2023-02-28T10:48:04;3.45;;;1.80;;
22191;SDS011;11261;52.456;10.850;2023-02-28T10:50:52;3.60;;;2.05;;
22191;SDS011;11261;52.456;10.850;2023-02-28T10:53:34;3.40;;;2.17;;
22191;SDS011;11261;52.456;10.850;2023-02-28T10:56:25;2.38;;;1.73;;
22191;SDS011;11261;52.456;10.850;2023-02-28T10:58:55;2.92;;;1.73;;
22191;SDS011;11261;52.456;10.850;2023-02-28T11:01:34;4.07;;;1.75;;
22191;SDS011;11261;52.456;10.850;2023-02-28T11:04:16;2.50;;;1.23;;
22191;SDS011;11261;52.456;10.850;2023-02-28T11:06:47;2.90;;;1.90;;
22191;SDS011;11261;52.456;10.850;2023-02-28T11:09:24;2.78;;;1.50;;
22191;SDS011;11261;52.456;10.850;2023-02-28T11:11:56;3.95;;;1.90;;
22191;SDS011;11261;52.456;10.850;2023-02-28T11:14:26;3.30;;;2.00;;
22191;SDS011;11261;52.456;10.850;2023-02-28T11:17:00;3.13;;;1.60;;
22191;SDS011;11261;52.456;10.850;2023-02-28T11:19:45;2.45;;;1.42;;
22191;SDS011;11261;52.456;10.850;2023-02-28T11:22:17;1.98;;;1.10;;
22191;SDS011;11261;52.456;10.850;2023-02-28T11:24:48;2.13;;;1.33;;
22191;SDS011;11261;52.456;10.850;2023-02-28T11:27:24;3.67;;;1.40;;
22191;SDS011;11261;52.456;10.850;2023-02-28T11:30:16;1.92;;;1.45;;
22191;SDS011;11261;52.456;10.850;2023-02-28T11:32:59;5.43;;;1.50;;
22191;SDS011;11261;52.456;10.850;2023-02-28T11:35:29;3.50;;;1.50;;
22191;SDS011;11261;52.456;10.850;2023-02-28T11:38:02;2.42;;;1.42;;
22191;SDS011;11261;52.456;10.850;2023-02-28T11:40:33;2.63;;;1.90;;
22191;SDS011;11261;52.456;10.850;2023-02-28T11:43:12;3.45;;;1.55;;
22191;SDS011;11261;52.456;10.850;2023-02-28T11:46:01;3.60;;;1.90;;
22191;SDS011;11261;52.456;10.850;2023-02-28T11:48:43;2.55;;;1.30;;
22191;SDS011;11261;52.456;10.850;2023-02-28T11:51:21;3.72;;;2.00;;
22191;SDS011;11261;52.456;10.850;2023-02-28T11:54:00;2.47;;;1.65;;
22191;SDS011;11261;52.456;10.850;2023-02-28T11:56:46;3.75;;;1.73;;
22191;SDS011;11261;52.456;10.850;2023-02-28T11:59:27;3.28;;;1.42;;
22191;SDS011;11261;52.456;10.850;2023-02-28T12:02:18;4.07;;;1.60;;
22191;SDS011;11261;52.456;10.850;2023-02-28T12:05:01;4.57;;;1.58;;
22191;SDS011;11261;52.456;10.850;2023-02-28T12:07:46;5.63;;;1.90;;
22191;SDS011;11261;52.456;10.850;2023-02-28T12:10:20;2.83;;;1.50;;
22191;SDS011;11261;52.456;10.850;2023-02-28T12:12:54;1.52;;;1.30;;
22191;SDS011;11261;52.456;10.850;2023-02-28T12:15:34;2.92;;;1.70;;
22191;SDS011;11261;52.456;10.850;2023-02-28T12:18:21;4.35;;;1.40;;
22191;SDS011;11261;52.456;10.850;2023-02-28T12:21:09;3.08;;;1.88;;
22191;SDS011;11261;52.456;10.850;2023-02-28T12:23:50;4.28;;;1.58;;
22191;SDS011;11261;52.456;10.850;2023-02-28T12:26:34;2.67;;;1.45;;
22191;SDS011;11261;52.456;10.850;2023-02-28T12:29:09;3.40;;;1.48;;
22191;SDS011;11261;52.456;10.850;2023-02-28T12:31:43;3.25;;;1.20;;
22191;SDS011;11261;52.456;10.850;2023-02-28T12:34:17;2.53;;;2.30;;
22191;SDS011;11261;52.456;10.850;2023-02-28T12:36:51;2.47;;;1.25;;
22191;SDS011;11261;52.456;10.850;2023-02-28T12:39:23;4.15;;;2.00;;
22191;SDS011;11261;52.456;10.850;2023-02-28T12:41:58;2.17;;;1.33;;
22191;SDS011;11261;52.456;10.850;2023-02-28T12:44:30;4.00;;;1.80;;
22191;SDS011;11261;52.456;10.850;2023-02-28T12:47:03;3.50;;;1.70;;
22191;SDS011;11261;52.456;10.850;2023-02-28T12:49:37;2.28;;;1.48;;
22191;SDS011;11261;52.456;10.850;2023-02-28T12:52:11;3.33;;;1.75;;
22191;SDS011;11261;52.456;10.850;2023-02-28T12:54:44;4.18;;;2.05;;
22191;SDS011;11261;52.456;10.850;2023-02-28T12:57:17;3.97;;;1.80;;
22191;SDS011;11261;52.456;10.850;2023-02-28T12:59:52;3.67;;;2.10;;
22191;SDS011;11261;52.456;10.850;2023-02-28T13:02:32;4.47;;;2.10;;
22191;SDS011;11261;52.456;10.850;2023-02-28T13:05:19;2.42;;;1.70;;
22191;SDS011;11261;52.456;10.850;2023-02-28T13:08:18;2.55;;;1.77;;
22191;SDS011;11261;52.456;10.850;2023-02-28T13:10:59;3.38;;;1.77;;
22191;SDS011;11261;52.456;10.850;2023-02-28T13:13:32;2.50;;;1.50;;
22191;SDS011;11261;52.456;10.850;2023-02-28T13:16:03;4.15;;;2.90;;
22191;SDS011;11261;52.456;10.850;2023-02-28T13:18:34;4.32;;;2.83;;
22191;SDS011;11261;52.456;10.850;2023-02-28T13:21:06;3.05;;;2.00;;
22191;SDS011;11261;52.456;10.850;2023-02-28T13:23:56;2.65;;;1.85;;
22191;SDS011;11261;52.456;10.850;2023-02-28T13:29:37;10.32;;;5.40;;
22191;SDS011;11261;52.456;10.850;2023-02-28T13:35:12;2.35;;;1.88;;
22191;SDS011;11261;52.456;10.850;2023-02-28T13:38:17;4.18;;;1.88;;
22191;SDS011;11261;52.456;10.850;2023-02-28T13:44:07;3.20;;;1.52;;
22191;SDS011;11261;52.456;10.850;2023-02-28T13:46:37;3.05;;;1.70;;
22191;SDS011;11261;52.456;10.850;2023-02-28T13:49:43;3.40;;;1.45;;
22191;SDS011;11261;52.456;10.850;2023-02-28T13:52:12;3.53;;;1.50;;
22191;SDS011;11261;52.456;10.850;2023-02-28T13:54:51;2.80;;;1.80;;
22191;SDS011;11261;52.456;10.850;2023-02-28T13:57:42;2.80;;;1.55;;
22191;SDS011;11261;52.456;10.850;2023-02-28T14:00:23;3.85;;;1.80;;
22191;SDS011;11261;52.456;10.850;2023-02-28T14:03:11;4.03;;;1.75;;
22191;SDS011;11261;52.456;10.850;2023-02-28T14:08:45;2.70;;;1.60;;
22191;SDS011;11261;52.456;10.850;2023-02-28T14:11:24;4.75;;;1.60;;
22191;SDS011;11261;52.456;10.850;2023-02-28T14:13:54;2.10;;;1.55;;
22191;SDS011;11261;52.456;10.850;2023-02-28T14:16:25;3.63;;;1.50;;
22191;SDS011;11261;52.456;10.850;2023-02-28T14:18:57;4.13;;;1.77;;
22191;SDS011;11261;52.456;10.850;2023-02-28T14:21:31;3.88;;;1.85;;
22191;SDS011;11261;52.456;10.850;2023-02-28T14:24:06;2.72;;;1.75;;
22191;SDS011;11261;52.456;10.850;2023-02-28T14:27:11;2.65;;;1.75;;
22191;SDS011;11261;52.456;10.850;2023-02-28T14:33:00;4.72;;;1.90;;
22191;SDS011;11261;52.456;10.850;2023-02-28T14:35:55;3.53;;;2.08;;
22191;SDS011;11261;52.456;10.850;2023-02-28T14:38:36;1.90;;;1.20;;
22191;SDS011;11261;52.456;10.850;2023-02-28T14:41:15;2.55;;;1.63;;
22191;SDS011;11261;52.456;10.850;2023-02-28T14:43:49;3.60;;;1.80;;
22191;SDS011;11261;52.456;10.850;2023-02-28T14:46:19;3.47;;;1.20;;
22191;SDS011;11261;52.456;10.850;2023-02-28T14:48:50;3.97;;;1.17;;
22191;SDS011;11261;52.456;10.850;2023-02-28T14:51:19;3.35;;;1.60;;
22191;SDS011;11261;52.456;10.850;2023-02-28T14:53:49;3.15;;;1.20;;
22191;SDS011;11261;52.456;10.850;2023-02-28T14:56:23;2.70;;;1.45;;
22191;SDS011;11261;52.456;10.850;2023-02-28T14:58:54;2.88;;;1.48;;
22191;SDS011;11261;52.456;10.850;2023-02-28T15:01:24;1.50;;;1.10;;
22191;SDS011;11261;52.456;10.850;2023-02-28T15:03:58;2.90;;;1.83;;
22191;SDS011;11261;52.456;10.850;2023-02-28T15:06:29;2.08;;;1.27;;
22191;SDS011;11261;52.456;10.850;2023-02-28T15:09:13;1.80;;;1.00;;
22191;SDS011;11261;52.456;10.850;2023-02-28T15:11:45;1.77;;;1.10;;
22191;SDS011;11261;52.456;10.850;2023-02-28T15:14:16;2.28;;;1.25;;
22191;SDS011;11261;52.456;10.850;2023-02-28T15:16:49;1.88;;;0.90;;
22191;SDS011;11261;52.456;10.850;2023-02-28T15:19:24;2.28;;;1.13;;
22191;SDS011;11261;52.456;10.850;2023-02-28T15:21:56;1.67;;;1.20;;
22191;SDS011;11261;52.456;10.850;2023-02-28T15:24:31;1.65;;;1.17;;
22191;SDS011;11261;52.456;10.850;2023-02-28T15:27:04;3.53;;;1.38;;